Decoded Metar for KPQL (PASCAGOULA in MS, USA) (IATA:PQL) | Meteo·Mobile Aviation Weather
aviador You're here:

KPQL Decoded Metar

PASCAGOULA in MS, USA
Report Time2018-12-14 22:53:00
UTC Time2018-12-14 23:50:20
Flight Rules vfr VFR
WindCalm
Visibility9999 m
Phenomena:N/A
Clouds:Few 026 Hf
Expected CloudBase > 1,600 ft AGL from Temp-Dew spread
CeilingNone
Temp14°C (ISA -1)
Dew Point10°C (77% RH)
QNH1011 hPa
Density Alt138 ft
Elevation20 ft
Report Wrong Elevation
Raw Report
KPQL 142253Z 00000KT 10SM FEW026 14/10 A2986 RMK AO2 SLP112
T01390100=

Extra information for KPQL:More info

Metar Taf Metar & Taf Last 4 Metars F.Rules Stats Wind Profile Meteogram Temp Stats Airport Information Weather charts Add Link Nearby VenuesMetar ALERT Operation Metar Decoded Social comments

AIRNAV info for KPQL